Time;durP1;ratioP1;P1;durP2;ratioP2;P2;SDS_P1;SDS_P2;PMS_P1;PMS_P2;Temp;Humidity;BMP_temperature;BMP_pressure;BME280_temperature;BME280_humidity;BME280_pressure;Samples;Min_cycle;Max_cycle;Signal;HPM_P1;HPM_P2
2023/09/18 00:02:18;;;;;;;6.10;4.28;;;18.20;89.70;;;;;;4987626;28;20045;-72
2023/09/18 00:04:44;;;;;;;6.40;4.70;;;18.20;89.70;;;;;;4975323;28;20039;-71
2023/09/18 00:07:10;;;;;;;6.60;4.50;;;18.30;89.80;;;;;;4990539;28;20030;-71
2023/09/18 00:09:36;;;;;;;6.03;4.15;;;18.30;89.50;;;;;;4991638;28;20096;-71
2023/09/18 00:12:01;;;;;;;7.68;4.70;;;18.20;89.70;;;;;;4998202;28;20038;-71
2023/09/18 00:14:27;;;;;;;6.75;4.45;;;18.20;89.60;;;;;;4985751;28;20030;-71
2023/09/18 00:16:52;;;;;;;6.50;4.43;;;18.10;89.70;;;;;;4986222;28;20537;-71
2023/09/18 00:19:18;;;;;;;5.75;4.07;;;18.10;89.80;;;;;;4989936;28;20038;-74
2023/09/18 00:21:43;;;;;;;7.95;4.47;;;18.00;89.90;;;;;;4992586;28;20038;-71
2023/09/18 00:24:09;;;;;;;7.03;4.20;;;18.00;90.10;;;;;;4996540;28;20049;-71
2023/09/18 00:26:34;;;;;;;5.70;4.18;;;18.00;90.10;;;;;;4992181;28;20475;-71
2023/09/18 00:29:00;;;;;;;7.13;4.70;;;18.00;90.10;;;;;;4990820;28;20057;-72
2023/09/18 00:31:25;;;;;;;5.72;4.15;;;18.00;90.10;;;;;;4986882;28;20368;-71
2023/09/18 00:33:51;;;;;;;6.35;4.25;;;18.00;90.30;;;;;;4988321;28;20034;-72
2023/09/18 00:36:16;;;;;;;6.38;4.45;;;18.00;90.20;;;;;;4990174;28;20042;-71
2023/09/18 00:38:41;;;;;;;6.00;3.85;;;18.00;90.30;;;;;;4993568;28;20423;-72
2023/09/18 00:41:07;;;;;;;7.72;4.53;;;17.90;90.40;;;;;;4992651;28;20034;-72
2023/09/18 00:43:33;;;;;;;6.97;4.47;;;17.90;90.40;;;;;;4991907;28;20069;-71
2023/09/18 00:45:59;;;;;;;6.68;4.32;;;17.90;90.40;;;;;;4985521;28;20152;-72
2023/09/18 00:48:25;;;;;;;7.63;4.43;;;17.90;90.30;;;;;;4967848;28;20034;-73
2023/09/18 00:50:51;;;;;;;8.88;4.60;;;18.00;90.30;;;;;;4989308;28;20066;-71
2023/09/18 00:53:21;;;;;;;8.52;4.72;;;18.00;90.10;;;;;;4976573;28;20066;-72
2023/09/18 00:55:47;;;;;;;6.18;4.03;;;18.00;90.10;;;;;;4995172;28;20034;-71
2023/09/18 00:58:13;;;;;;;7.78;4.90;;;18.00;90.10;;;;;;4987329;28;20403;-71
2023/09/18 01:00:40;;;;;;;6.70;4.40;;;18.00;90.00;;;;;;4984579;28;20422;-73
2023/09/18 01:03:06;;;;;;;7.30;4.72;;;18.00;90.10;;;;;;4991416;28;20036;-72
2023/09/18 01:05:35;;;;;;;8.25;4.82;;;17.90;90.20;;;;;;4987855;28;20035;-73
2023/09/18 01:08:01;;;;;;;6.40;4.43;;;17.80;90.30;;;;;;4989638;28;20132;-71
2023/09/18 01:10:36;;;;;;;6.47;4.80;;;17.80;90.40;;;;;;4990316;28;20070;-72
2023/09/18 01:13:13;;;;;;;8.68;4.35;;;17.70;90.60;;;;;;4983669;28;20027;-72
2023/09/18 01:15:54;;;;;;;7.55;4.93;;;17.70;90.60;;;;;;4983637;28;20118;-71
2023/09/18 01:18:19;;;;;;;5.93;3.92;;;17.60;90.90;;;;;;4984722;28;20026;-72
2023/09/18 01:20:45;;;;;;;6.95;4.72;;;17.60;91.10;;;;;;4989689;28;20045;-72
2023/09/18 01:23:11;;;;;;;8.52;4.35;;;17.60;91.10;;;;;;4983729;28;20034;-72
2023/09/18 01:25:37;;;;;;;7.35;5.15;;;17.50;91.10;;;;;;4988174;28;20064;-71
2023/09/18 01:28:03;;;;;;;7.63;4.80;;;17.60;91.20;;;;;;4988430;28;20398;-71
2023/09/18 01:30:29;;;;;;;11.00;4.63;;;17.70;90.80;;;;;;4983364;28;20053;-73
2023/09/18 01:32:56;;;;;;;7.18;4.97;;;17.60;91.00;;;;;;4985995;28;20033;-71
2023/09/18 01:35:28;;;;;;;6.55;4.55;;;17.60;90.90;;;;;;4987959;28;20038;-72
2023/09/18 01:37:55;;;;;;;6.95;4.40;;;17.70;90.70;;;;;;4987967;28;20085;-72
2023/09/18 01:40:21;;;;;;;6.95;5.07;;;17.70;90.80;;;;;;4969783;28;20121;-71
2023/09/18 01:42:47;;;;;;;11.60;4.90;;;17.60;91.20;;;;;;4986525;28;20165;-71
2023/09/18 01:45:13;;;;;;;13.15;4.85;;;17.60;91.10;;;;;;4984975;28;20073;-71
2023/09/18 01:47:38;;;;;;;7.13;4.53;;;17.60;91.10;;;;;;4967398;28;20089;-72
2023/09/18 01:50:07;;;;;;;6.90;4.55;;;17.50;91.20;;;;;;4987377;28;20479;-71
2023/09/18 01:52:34;;;;;;;7.82;4.65;;;17.50;91.00;;;;;;4983336;28;20472;-72
2023/09/18 01:55:00;;;;;;;7.72;4.78;;;17.50;91.30;;;;;;4980833;28;20038;-72
2023/09/18 01:57:26;;;;;;;7.75;4.93;;;17.50;91.40;;;;;;4987214;28;20077;-71
2023/09/18 01:59:51;;;;;;;7.30;4.70;;;17.40;91.20;;;;;;4969161;28;20124;-71
2023/09/18 02:02:17;;;;;;;5.80;4.57;;;17.40;91.50;;;;;;4986293;28;20540;-71
2023/09/18 02:04:42;;;;;;;6.18;4.40;;;17.30;91.50;;;;;;4984866;28;20034;-71
2023/09/18 02:07:09;;;;;;;6.25;4.35;;;17.30;91.50;;;;;;4987290;28;20457;-72
2023/09/18 02:09:34;;;;;;;6.90;4.72;;;17.30;91.70;;;;;;4989327;28;20178;-72
2023/09/18 02:12:00;;;;;;;6.82;4.50;;;17.20;91.70;;;;;;4988900;28;20113;-72
2023/09/18 02:14:25;;;;;;;6.78;4.13;;;17.20;91.90;;;;;;4984472;28;20038;-71
2023/09/18 02:16:51;;;;;;;6.65;4.68;;;17.20;91.80;;;;;;4982920;28;20492;-71
2023/09/18 02:19:18;;;;;;;6.15;4.57;;;17.20;91.70;;;;;;4989428;28;20030;-71
2023/09/18 02:21:43;;;;;;;6.13;4.53;;;17.20;91.70;;;;;;4991519;28;20036;-72
2023/09/18 02:24:09;;;;;;;9.27;4.53;;;17.20;91.90;;;;;;4989375;28;20649;-71
2023/09/18 02:26:35;;;;;;;9.00;5.40;;;17.20;91.60;;;;;;4990263;28;20034;-73
2023/09/18 02:29:03;;;;;;;6.32;4.60;;;17.20;91.70;;;;;;4984797;28;20026;-73
2023/09/18 02:31:29;;;;;;;6.28;4.43;;;17.30;91.50;;;;;;4985098;28;20046;-71
2023/09/18 02:33:55;;;;;;;5.78;4.45;;;17.20;91.40;;;;;;4989131;28;20038;-72
2023/09/18 02:36:20;;;;;;;6.82;4.75;;;17.20;91.40;;;;;;4989877;28;20101;-71
2023/09/18 02:38:46;;;;;;;6.38;4.35;;;17.20;91.40;;;;;;4988386;28;20042;-71
2023/09/18 02:41:11;;;;;;;6.25;4.65;;;17.20;91.50;;;;;;4984723;28;20436;-70
2023/09/18 02:43:37;;;;;;;7.50;4.50;;;17.20;91.50;;;;;;4986277;28;20034;-71
2023/09/18 02:46:04;;;;;;;7.18;4.78;;;17.20;91.40;;;;;;4982037;28;20053;-71
2023/09/18 02:48:29;;;;;;;6.45;4.45;;;17.20;91.50;;;;;;4986297;28;20114;-71
2023/09/18 02:50:55;;;;;;;6.25;4.70;;;17.20;91.20;;;;;;4968691;28;20144;-71
2023/09/18 02:53:22;;;;;;;7.28;4.35;;;17.20;91.10;;;;;;4987985;28;20030;-74
2023/09/18 02:55:51;;;;;;;6.55;4.60;;;17.20;91.20;;;;;;4969745;28;20034;-74
2023/09/18 02:58:18;;;;;;;7.38;4.88;;;17.20;91.10;;;;;;4967100;28;20047;-72
2023/09/18 03:00:45;;;;;;;7.35;4.57;;;17.20;91.10;;;;;;4980942;28;20069;-71
2023/09/18 03:03:11;;;;;;;6.18;4.47;;;17.10;91.20;;;;;;4983025;28;20041;-71
2023/09/18 03:05:37;;;;;;;5.93;4.30;;;17.10;91.40;;;;;;4984815;28;20042;-71
2023/09/18 03:08:03;;;;;;;10.65;4.53;;;17.10;91.40;;;;;;4986069;28;20035;-72
2023/09/18 03:10:34;;;;;;;7.22;4.40;;;17.10;91.30;;;;;;4990322;28;20027;-71
2023/09/18 03:13:00;;;;;;;6.43;4.13;;;17.10;91.40;;;;;;4987085;28;20034;-72
2023/09/18 03:15:25;;;;;;;8.10;4.75;;;17.00;91.70;;;;;;4984827;28;20038;-73
2023/09/18 03:17:51;;;;;;;6.82;4.47;;;16.90;92.00;;;;;;4984340;28;20027;-72
2023/09/18 03:20:16;;;;;;;9.10;4.40;;;16.90;91.90;;;;;;4994610;28;20047;-71
2023/09/18 03:22:42;;;;;;;7.97;5.00;;;16.90;91.90;;;;;;4987704;28;20046;-71
2023/09/18 03:25:08;;;;;;;6.65;4.57;;;16.90;92.00;;;;;;4991367;28;20058;-72
2023/09/18 03:27:33;;;;;;;7.03;4.22;;;16.90;92.10;;;;;;4985692;28;20145;-72
2023/09/18 03:29:59;;;;;;;7.85;4.55;;;16.90;92.00;;;;;;4989280;28;20038;-71
2023/09/18 03:32:24;;;;;;;7.38;4.97;;;16.90;92.10;;;;;;4985179;28;20093;-72
2023/09/18 03:34:53;;;;;;;6.00;4.25;;;16.90;92.10;;;;;;4988459;28;20039;-72
2023/09/18 03:37:19;;;;;;;8.40;5.38;;;16.90;92.20;;;;;;4987499;28;20266;-71
2023/09/18 03:39:44;;;;;;;6.53;5.00;;;16.90;92.30;;;;;;4980058;28;20043;-72
2023/09/18 03:42:10;;;;;;;7.97;4.72;;;16.90;92.20;;;;;;4982079;28;20030;-72
2023/09/18 03:44:36;;;;;;;8.27;4.90;;;16.90;92.20;;;;;;4988453;28;20038;-71
2023/09/18 03:47:01;;;;;;;7.25;4.80;;;17.00;92.20;;;;;;4988699;28;20088;-71
2023/09/18 03:49:28;;;;;;;7.40;4.68;;;16.90;92.20;;;;;;4992201;28;20038;-72
2023/09/18 03:51:53;;;;;;;7.55;5.32;;;16.90;92.20;;;;;;4986573;28;20096;-71
2023/09/18 03:54:19;;;;;;;7.75;4.65;;;16.90;92.30;;;;;;4965451;28;20467;-71
2023/09/18 03:56:46;;;;;;;6.72;5.00;;;16.90;92.20;;;;;;4980424;28;20062;-73
2023/09/18 03:59:11;;;;;;;6.88;4.88;;;16.90;92.40;;;;;;4986121;28;20026;-71
2023/09/18 04:01:37;;;;;;;5.82;4.38;;;16.80;92.30;;;;;;4983774;28;20034;-73
2023/09/18 04:04:03;;;;;;;9.68;4.90;;;16.80;92.40;;;;;;4990044;28;20045;-72
2023/09/18 04:06:37;;;;;;;8.65;4.43;;;16.80;92.30;;;;;;4986861;28;20158;-71
2023/09/18 04:09:02;;;;;;;6.53;4.65;;;16.90;92.20;;;;;;4973672;28;20039;-71
2023/09/18 04:11:32;;;;;;;7.90;4.68;;;16.90;92.30;;;;;;4990475;28;20038;-71
2023/09/18 04:13:59;;;;;;;6.00;4.70;;;16.80;92.40;;;;;;4985686;28;20034;-74
2023/09/18 04:16:24;;;;;;;7.10;4.65;;;16.90;92.30;;;;;;4983196;28;20026;-71
2023/09/18 04:18:50;;;;;;;6.18;4.65;;;16.90;92.30;;;;;;4985050;28;20387;-71
2023/09/18 04:21:16;;;;;;;6.93;4.32;;;17.00;92.10;;;;;;4991343;28;20034;-71
2023/09/18 04:23:41;;;;;;;7.50;5.13;;;17.00;91.90;;;;;;4974541;28;20034;-71
2023/09/18 04:26:07;;;;;;;6.35;4.25;;;17.00;91.70;;;;;;4976791;28;20280;-71
2023/09/18 04:28:32;;;;;;;7.78;4.88;;;17.10;91.70;;;;;;4986155;28;20419;-68
2023/09/18 04:30:57;;;;;;;8.50;4.80;;;17.10;91.60;;;;;;4982278;28;20034;-67
2023/09/18 04:33:23;;;;;;;5.47;4.40;;;17.10;91.40;;;;;;4982390;28;20050;-68
2023/09/18 04:35:49;;;;;;;6.72;4.43;;;17.10;91.50;;;;;;4986738;28;20049;-66
2023/09/18 04:38:15;;;;;;;6.47;4.45;;;17.10;91.50;;;;;;4990548;28;20034;-67
2023/09/18 04:40:40;;;;;;;8.25;4.55;;;17.00;91.50;;;;;;4973115;28;20034;-66
2023/09/18 04:43:06;;;;;;;7.20;4.55;;;17.10;91.50;;;;;;4986202;28;20053;-70
2023/09/18 04:45:31;;;;;;;6.90;4.35;;;17.10;91.40;;;;;;4979934;28;20120;-67
2023/09/18 04:47:57;;;;;;;8.57;4.68;;;17.10;91.20;;;;;;4981857;28;20039;-67
2023/09/18 04:50:22;;;;;;;8.13;4.40;;;17.00;91.70;;;;;;4987695;28;20554;-67
2023/09/18 04:52:50;;;;;;;7.35;4.32;;;17.00;91.60;;;;;;4990288;28;20026;-67
2023/09/18 04:55:16;;;;;;;7.22;4.70;;;17.10;91.50;;;;;;4988608;28;20045;-66
2023/09/18 04:57:41;;;;;;;6.72;4.32;;;17.10;91.50;;;;;;4990634;28;20035;-66
2023/09/18 05:00:08;;;;;;;7.93;4.65;;;17.20;91.50;;;;;;4985764;28;20041;-67
2023/09/18 05:02:34;;;;;;;6.38;4.07;;;17.20;91.20;;;;;;4981033;28;20045;-67
2023/09/18 05:05:01;;;;;;;6.90;4.40;;;17.20;91.20;;;;;;4982617;28;20298;-66
2023/09/18 05:07:26;;;;;;;6.05;4.20;;;17.30;91.00;;;;;;4985861;28;20495;-67
2023/09/18 05:09:52;;;;;;;5.57;4.10;;;17.40;90.80;;;;;;4989525;28;20113;-66
2023/09/18 05:12:18;;;;;;;6.80;3.92;;;17.50;90.40;;;;;;4987811;28;20390;-67
2023/09/18 05:14:44;;;;;;;6.95;4.07;;;17.50;90.10;;;;;;4971115;28;20030;-68
2023/09/18 05:17:12;;;;;;;7.00;4.45;;;17.50;90.50;;;;;;4987564;28;20034;-67
2023/09/18 05:19:37;;;;;;;6.35;4.43;;;17.50;90.20;;;;;;4991361;28;20113;-68
2023/09/18 05:22:03;;;;;;;6.60;4.15;;;17.50;90.10;;;;;;4985919;28;20113;-66
2023/09/18 05:24:29;;;;;;;7.18;4.55;;;17.60;90.20;;;;;;4987316;28;20066;-67
2023/09/18 05:26:54;;;;;;;6.20;4.18;;;17.60;90.30;;;;;;4992983;28;20037;-67
2023/09/18 05:29:20;;;;;;;7.32;4.78;;;17.60;90.10;;;;;;4990302;28;20038;-66
2023/09/18 05:31:46;;;;;;;5.93;3.83;;;17.70;89.90;;;;;;4986100;28;20053;-66
2023/09/18 05:34:12;;;;;;;6.30;4.13;;;17.70;89.80;;;;;;4989095;28;20041;-66
2023/09/18 05:36:38;;;;;;;6.22;4.32;;;17.70;89.80;;;;;;4990198;28;20064;-67
2023/09/18 05:39:04;;;;;;;8.15;4.03;;;17.70;89.60;;;;;;4988675;28;22251;-66
2023/09/18 05:41:30;;;;;;;5.85;3.97;;;17.80;89.50;;;;;;4993608;28;20019;-67
2023/09/18 05:43:56;;;;;;;6.95;3.75;;;17.90;89.20;;;;;;4998106;28;20069;-68
2023/09/18 05:46:22;;;;;;;6.93;3.85;;;17.90;89.50;;;;;;4985438;28;20030;-67
2023/09/18 05:48:47;;;;;;;5.78;3.47;;;17.90;89.50;;;;;;4984612;28;20040;-68
2023/09/18 05:51:12;;;;;;;7.10;4.20;;;18.00;89.50;;;;;;4973766;28;20492;-67
2023/09/18 05:53:38;;;;;;;6.95;3.90;;;18.00;89.30;;;;;;4987783;28;20081;-66
2023/09/18 05:56:04;;;;;;;5.85;3.88;;;18.00;89.00;;;;;;4982335;28;20106;-67
2023/09/18 05:58:32;;;;;;;6.55;3.65;;;18.10;88.90;;;;;;4985793;28;20185;-68
2023/09/18 06:01:00;;;;;;;6.53;4.18;;;18.20;89.00;;;;;;4979960;28;20566;-70
2023/09/18 06:03:26;;;;;;;6.60;3.72;;;18.20;88.80;;;;;;4983645;28;20039;-67
2023/09/18 06:05:51;;;;;;;6.65;3.92;;;18.30;88.90;;;;;;4987853;28;20041;-67
2023/09/18 06:08:18;;;;;;;6.53;4.05;;;18.40;88.70;;;;;;4990181;28;20685;-67
2023/09/18 06:10:44;;;;;;;5.30;3.67;;;18.50;88.00;;;;;;4973452;28;20038;-67
2023/09/18 06:13:10;;;;;;;6.05;3.95;;;18.60;88.00;;;;;;4984454;28;20039;-67
2023/09/18 06:15:35;;;;;;;5.68;3.70;;;18.60;87.60;;;;;;4964401;28;20044;-67
2023/09/18 06:18:01;;;;;;;6.97;3.58;;;18.80;87.30;;;;;;4986669;28;20038;-67
2023/09/18 06:20:27;;;;;;;6.15;3.80;;;18.90;87.30;;;;;;4992324;28;20081;-68
2023/09/18 06:22:52;;;;;;;5.10;3.60;;;18.90;87.10;;;;;;4986826;28;20042;-67
2023/09/18 06:25:18;;;;;;;7.43;4.00;;;18.90;87.30;;;;;;4985709;28;20518;-67
2023/09/18 06:27:44;;;;;;;5.25;3.65;;;18.90;87.30;;;;;;4990277;28;20026;-69
2023/09/18 06:30:10;;;;;;;5.03;3.75;;;19.00;87.20;;;;;;4984227;28;20041;-67
2023/09/18 06:32:36;;;;;;;5.53;3.40;;;19.00;86.80;;;;;;4981257;28;20438;-68
2023/09/18 06:35:02;;;;;;;6.82;3.90;;;19.00;87.40;;;;;;4991035;28;20057;-68
2023/09/18 06:37:28;;;;;;;7.15;3.17;;;19.10;86.60;;;;;;4991889;28;20491;-68
2023/09/18 06:39:54;;;;;;;6.97;3.47;;;19.20;87.10;;;;;;4987548;28;20034;-68
2023/09/18 06:42:19;;;;;;;5.05;3.28;;;19.30;86.20;;;;;;4992759;28;20387;-68
2023/09/18 06:44:45;;;;;;;5.22;3.40;;;19.50;86.70;;;;;;4995588;28;20034;-67
2023/09/18 06:47:10;;;;;;;5.78;3.63;;;19.70;85.10;;;;;;4985226;28;20047;-68
2023/09/18 06:49:36;;;;;;;7.30;3.58;;;19.90;85.30;;;;;;4988768;28;20034;-68
2023/09/18 06:52:02;;;;;;;5.80;3.28;;;20.00;85.00;;;;;;4991371;28;20582;-68
2023/09/18 06:54:27;;;;;;;5.80;2.85;;;20.10;84.20;;;;;;4989132;28;20456;-68
2023/09/18 06:56:53;;;;;;;5.65;3.58;;;20.20;84.10;;;;;;4990841;28;20442;-68
2023/09/18 06:59:18;;;;;;;6.30;3.47;;;20.40;83.60;;;;;;4993629;28;20094;-69
2023/09/18 07:01:44;;;;;;;5.85;3.50;;;20.50;83.50;;;;;;4968503;28;20031;-69
2023/09/18 07:04:09;;;;;;;5.50;3.28;;;20.50;83.50;;;;;;4983765;28;20043;-67
2023/09/18 07:06:35;;;;;;;5.63;3.33;;;20.60;83.40;;;;;;4983372;28;20447;-68
2023/09/18 07:09:01;;;;;;;5.15;3.10;;;20.60;83.30;;;;;;4990399;28;20034;-67
2023/09/18 07:11:27;;;;;;;5.35;3.30;;;20.80;82.80;;;;;;4989080;28;20049;-69
2023/09/18 07:13:52;;;;;;;5.35;3.38;;;20.90;83.50;;;;;;4987063;28;20470;-68
2023/09/18 07:16:18;;;;;;;4.55;2.88;;;20.90;83.30;;;;;;4991324;28;20076;-70
2023/09/18 07:18:43;;;;;;;7.13;3.50;;;20.90;82.90;;;;;;4991950;28;20455;-67
2023/09/18 07:21:09;;;;;;;5.70;3.35;;;21.00;82.90;;;;;;4988391;28;20026;-68
2023/09/18 07:23:37;;;;;;;6.00;3.00;;;21.00;83.10;;;;;;4973833;28;20115;-68
2023/09/18 07:26:03;;;;;;;4.93;3.10;;;21.00;82.90;;;;;;4990489;28;20046;-68
2023/09/18 07:28:28;;;;;;;5.18;3.13;;;21.10;83.00;;;;;;4983520;28;20032;-68
2023/09/18 07:30:54;;;;;;;5.35;3.25;;;21.20;82.60;;;;;;4984657;28;20700;-68
2023/09/18 07:33:20;;;;;;;6.50;3.50;;;21.20;82.90;;;;;;4985702;28;20574;-68
2023/09/18 07:35:47;;;;;;;6.55;3.10;;;21.20;83.40;;;;;;4987484;28;20030;-67
2023/09/18 07:38:13;;;;;;;4.82;3.38;;;21.20;83.40;;;;;;4986720;28;20061;-68
2023/09/18 07:40:39;;;;;;;4.63;3.30;;;21.20;83.00;;;;;;4980339;28;20514;-69
2023/09/18 07:43:04;;;;;;;7.28;3.85;;;21.20;83.20;;;;;;4977310;28;20038;-70
2023/09/18 07:45:30;;;;;;;4.25;2.78;;;21.10;83.20;;;;;;4984649;28;20451;-68
2023/09/18 07:47:55;;;;;;;4.97;3.30;;;21.00;83.00;;;;;;4982283;28;20038;-69
2023/09/18 07:50:21;;;;;;;4.90;3.13;;;21.00;82.80;;;;;;4974588;28;20062;-69
2023/09/18 07:52:46;;;;;;;4.60;3.17;;;20.80;83.10;;;;;;4991008;28;20456;-68
2023/09/18 07:55:12;;;;;;;5.35;3.00;;;20.70;83.60;;;;;;4984895;28;20030;-68
2023/09/18 07:57:38;;;;;;;4.72;3.35;;;20.60;83.50;;;;;;4996958;28;20471;-69
2023/09/18 08:00:07;;;;;;;5.13;3.55;;;20.60;83.70;;;;;;4988544;28;20038;-67
2023/09/18 08:02:34;;;;;;;5.13;3.05;;;20.50;84.60;;;;;;4985368;28;20097;-68
2023/09/18 08:05:01;;;;;;;5.65;3.38;;;20.40;86.10;;;;;;4985996;28;20038;-68
2023/09/18 08:07:28;;;;;;;6.22;3.65;;;20.20;87.10;;;;;;4969249;28;20563;-67
2023/09/18 08:09:53;;;;;;;6.40;3.95;;;20.10;87.60;;;;;;4985745;28;20088;-68
2023/09/18 08:12:19;;;;;;;5.40;3.50;;;20.00;88.70;;;;;;4988221;28;20415;-68
2023/09/18 08:14:44;;;;;;;5.53;3.80;;;20.00;88.80;;;;;;4985107;28;20056;-68
2023/09/18 08:17:10;;;;;;;6.47;4.25;;;19.90;89.00;;;;;;4988747;28;20034;-68
2023/09/18 08:19:37;;;;;;;5.20;3.45;;;19.90;89.10;;;;;;4990393;28;20405;-68
2023/09/18 08:22:03;;;;;;;7.63;4.03;;;19.90;88.80;;;;;;4991987;28;20080;-68
2023/09/18 08:24:29;;;;;;;7.50;4.03;;;19.90;88.70;;;;;;4993217;28;20046;-68
2023/09/18 08:26:55;;;;;;;7.57;3.75;;;19.90;88.30;;;;;;4990689;28;20034;-68
2023/09/18 08:29:22;;;;;;;8.57;3.92;;;19.90;88.80;;;;;;4986125;28;20030;-67
2023/09/18 08:31:49;;;;;;;6.55;3.88;;;19.90;88.40;;;;;;4985775;28;20057;-68
2023/09/18 08:34:14;;;;;;;6.43;3.88;;;20.00;88.60;;;;;;4988838;28;20034;-67
2023/09/18 08:36:40;;;;;;;7.50;3.83;;;19.90;88.70;;;;;;4986853;28;20045;-68
2023/09/18 08:39:05;;;;;;;5.93;3.60;;;20.00;88.90;;;;;;4988235;28;20042;-68
2023/09/18 08:41:32;;;;;;;6.45;3.78;;;20.00;88.50;;;;;;4991590;28;20037;-68
2023/09/18 08:44:05;;;;;;;5.85;3.72;;;20.00;88.20;;;;;;4987968;28;20442;-70
2023/09/18 08:46:30;;;;;;;6.05;3.50;;;20.20;89.20;;;;;;4984631;28;20052;-68
2023/09/18 08:48:58;;;;;;;6.70;3.63;;;20.30;88.90;;;;;;4988280;28;20042;-67
2023/09/18 08:51:24;;;;;;;5.80;4.00;;;20.50;88.20;;;;;;4980961;28;20026;-67
2023/09/18 08:53:50;;;;;;;6.57;3.40;;;20.70;86.80;;;;;;4988400;28;20452;-68
2023/09/18 08:56:17;;;;;;;6.03;3.53;;;20.90;86.20;;;;;;4989283;28;20039;-70
2023/09/18 08:58:43;;;;;;;5.97;3.33;;;21.10;86.30;;;;;;4990599;28;20031;-68
2023/09/18 09:01:10;;;;;;;4.75;3.58;;;21.20;85.40;;;;;;4988454;28;20038;-68
2023/09/18 09:03:38;;;;;;;5.97;3.40;;;21.40;85.00;;;;;;4985272;28;20446;-68
2023/09/18 09:06:04;;;;;;;6.55;3.60;;;21.70;84.10;;;;;;4988398;28;20489;-68
2023/09/18 09:08:29;;;;;;;6.43;3.40;;;21.70;83.70;;;;;;4990855;28;20496;-68
2023/09/18 09:10:57;;;;;;;4.43;2.60;;;22.10;83.80;;;;;;4994057;28;20037;-67
2023/09/18 09:13:26;;;;;;;8.32;3.20;;;22.70;83.10;;;;;;4988078;28;20029;-67
2023/09/18 09:15:54;;;;;;;3.83;2.85;;;22.70;80.80;;;;;;4988292;28;20038;-68
2023/09/18 09:18:19;;;;;;;4.80;2.80;;;22.90;81.50;;;;;;4985185;28;20356;-68
2023/09/18 09:20:59;;;;;;;4.90;3.10;;;23.00;80.20;;;;;;4991451;28;20080;-68
2023/09/18 09:23:52;;;;;;;6.35;2.85;;;23.00;80.90;;;;;;4989093;28;20094;-70
2023/09/18 09:26:20;;;;;;;4.25;2.80;;;23.00;80.00;;;;;;4989174;28;20092;-70
2023/09/18 09:28:46;;;;;;;4.88;2.55;;;23.00;80.10;;;;;;4971220;28;20043;-69
2023/09/18 09:31:31;;;;;;;5.30;2.75;;;22.60;79.60;;;;;;4988672;28;20030;-69
2023/09/18 09:33:58;;;;;;;5.05;2.92;;;22.50;80.20;;;;;;4983523;28;20035;-70
2023/09/18 09:36:24;;;;;;;4.57;2.85;;;22.50;81.20;;;;;;4983421;28;20033;-69
2023/09/18 09:38:56;;;;;;;5.68;2.60;;;22.40;81.80;;;;;;4962233;28;20084;-68
2023/09/18 09:41:21;;;;;;;5.18;2.70;;;22.40;81.70;;;;;;4980961;28;20031;-68
2023/09/18 09:43:47;;;;;;;4.10;2.45;;;22.50;81.90;;;;;;4987775;28;20403;-68
2023/09/18 09:46:17;;;;;;;3.85;2.35;;;22.60;82.60;;;;;;4983749;28;20031;-69
2023/09/18 09:49:02;;;;;;;4.13;2.65;;;22.60;81.30;;;;;;4980568;28;20126;-68
2023/09/18 09:51:29;;;;;;;6.45;2.38;;;22.60;80.70;;;;;;4986941;28;20120;-69
2023/09/18 09:53:55;;;;;;;4.25;2.50;;;22.70;82.00;;;;;;4970476;28;20411;-70
2023/09/18 09:56:21;;;;;;;5.28;2.67;;;22.70;81.10;;;;;;4986471;28;20031;-70
2023/09/18 09:59:07;;;;;;;5.10;2.55;;;22.70;81.30;;;;;;4994157;28;20037;-69
2023/09/18 10:01:34;;;;;;;6.57;2.78;;;22.70;81.70;;;;;;4990342;28;20038;-68
2023/09/18 10:04:07;;;;;;;5.97;2.53;;;22.80;81.70;;;;;;4999332;28;20387;-67
2023/09/18 10:06:35;;;;;;;5.80;2.53;;;22.90;81.60;;;;;;4993925;28;20031;-68
2023/09/18 10:09:03;;;;;;;4.28;2.60;;;22.90;80.60;;;;;;4992191;28;20054;-68
2023/09/18 10:11:32;;;;;;;4.95;2.30;;;22.90;80.80;;;;;;4983328;28;20026;-68
2023/09/18 10:14:13;;;;;;;5.30;2.58;;;23.00;79.10;;;;;;4984296;28;20043;-70
2023/09/18 10:16:44;;;;;;;6.88;2.50;;;23.40;78.60;;;;;;4989736;28;20042;-67
2023/09/18 10:19:21;;;;;;;8.10;2.70;;;23.50;78.90;;;;;;4986458;28;20050;-67
2023/09/18 10:21:55;;;;;;;5.88;2.30;;;23.60;79.00;;;;;;4995612;28;20065;-67
2023/09/18 10:24:24;;;;;;;5.20;2.40;;;23.40;78.20;;;;;;4971089;28;20077;-68
2023/09/18 10:27:03;;;;;;;4.68;2.55;;;23.50;78.80;;;;;;4989169;28;20026;-67
2023/09/18 10:29:30;;;;;;;5.63;2.55;;;23.50;78.20;;;;;;4979732;28;20468;-68
2023/09/18 10:31:56;;;;;;;4.97;2.10;;;23.70;79.50;;;;;;4967626;28;20096;-67
2023/09/18 10:34:23;;;;;;;6.18;2.10;;;23.80;76.50;;;;;;4985651;28;20034;-67
2023/09/18 10:36:54;;;;;;;3.92;2.10;;;24.00;77.30;;;;;;4993078;28;20034;-67
2023/09/18 10:39:23;;;;;;;7.05;2.20;;;24.20;78.60;;;;;;4969941;28;20391;-67
2023/09/18 10:41:53;;;;;;;7.05;2.15;;;23.80;76.80;;;;;;4986388;28;20042;-67
2023/09/18 10:44:20;;;;;;;6.20;2.80;;;23.60;77.60;;;;;;4985706;28;20230;-68
2023/09/18 10:46:49;;;;;;;5.28;2.67;;;23.40;78.30;;;;;;4988425;28;20038;-67
2023/09/18 10:49:16;;;;;;;4.22;2.20;;;23.50;77.80;;;;;;4970859;28;20109;-68
2023/09/18 10:51:42;;;;;;;5.13;2.20;;;23.90;77.90;;;;;;4989956;28;20038;-68
2023/09/18 10:54:09;;;;;;;3.45;2.00;;;24.00;77.30;;;;;;4988203;28;20026;-67
2023/09/18 10:56:35;;;;;;;6.57;2.17;;;23.80;77.60;;;;;;4988225;28;20364;-67
2023/09/18 10:59:03;;;;;;;4.00;2.10;;;23.50;76.70;;;;;;4980681;28;20045;-70
2023/09/18 11:01:30;;;;;;;5.05;2.05;;;23.40;77.80;;;;;;4988203;28;20031;-67
2023/09/18 11:04:01;;;;;;;7.00;2.10;;;23.40;78.10;;;;;;4993416;28;20092;-67
2023/09/18 11:06:27;;;;;;;6.22;1.98;;;23.40;78.90;;;;;;4975546;28;20226;-68
2023/09/18 11:09:04;;;;;;;6.13;2.08;;;23.20;78.70;;;;;;4988286;28;20462;-67
2023/09/18 11:11:32;;;;;;;5.40;1.85;;;23.20;78.50;;;;;;4993757;28;20030;-67
2023/09/18 11:13:58;;;;;;;6.45;2.40;;;23.20;79.10;;;;;;4991306;28;20049;-69
2023/09/18 11:16:26;;;;;;;5.57;2.10;;;23.20;79.30;;;;;;4986143;28;20034;-68
2023/09/18 11:19:03;;;;;;;6.05;2.00;;;23.00;79.30;;;;;;4983287;28;20503;-68
2023/09/18 11:21:30;;;;;;;3.92;1.80;;;22.90;80.20;;;;;;4984167;28;20057;-68
2023/09/18 11:24:03;;;;;;;5.35;1.85;;;22.90;80.60;;;;;;4989528;28;20411;-68
2023/09/18 11:26:36;;;;;;;8.15;2.28;;;22.80;80.10;;;;;;4986900;28;20026;-71
2023/09/18 11:29:05;;;;;;;4.85;1.98;;;22.80;80.50;;;;;;4989605;28;20038;-67
2023/09/18 11:31:45;;;;;;;5.53;1.77;;;22.90;79.40;;;;;;4990358;28;20034;-67
2023/09/18 11:34:22;;;;;;;7.57;1.95;;;22.90;80.00;;;;;;4990327;28;20027;-68
2023/09/18 11:36:48;;;;;;;4.45;1.75;;;22.90;79.20;;;;;;4987193;28;20099;-70
2023/09/18 11:39:50;;;;;;;5.50;1.77;;;22.90;79.40;;;;;;4992692;28;20080;-68
2023/09/18 11:42:26;;;;;;;6.78;1.77;;;23.10;79.30;;;;;;4990363;28;20048;-67
2023/09/18 11:44:52;;;;;;;6.07;1.65;;;23.30;77.90;;;;;;4998254;28;20100;-69
2023/09/18 11:47:19;;;;;;;6.97;2.10;;;23.50;78.40;;;;;;4985979;28;20076;-69
2023/09/18 11:49:54;;;;;;;7.13;1.90;;;23.60;76.60;;;;;;4991487;28;20118;-69
2023/09/18 11:52:20;;;;;;;4.45;1.70;;;23.60;77.10;;;;;;4991834;28;20030;-68
2023/09/18 11:54:46;;;;;;;8.30;2.17;;;23.70;78.00;;;;;;4969732;28;20035;-67
2023/09/18 11:57:13;;;;;;;4.20;1.50;;;23.60;76.40;;;;;;5000726;28;20367;-67
2023/09/18 11:59:43;;;;;;;5.28;1.42;;;23.50;76.70;;;;;;4993312;28;20030;-67
2023/09/18 12:02:11;;;;;;;4.97;1.67;;;24.00;77.30;;;;;;4982505;28;20101;-67
2023/09/18 12:04:36;;;;;;;6.10;1.48;;;23.90;75.40;;;;;;4989837;28;20058;-67
2023/09/18 12:07:06;;;;;;;5.15;1.40;;;24.60;75.90;;;;;;4990246;28;20394;-68
2023/09/18 12:09:33;;;;;;;3.95;1.42;;;24.90;72.60;;;;;;4987781;28;20379;-68
2023/09/18 12:12:05;;;;;;;4.53;1.40;;;24.80;72.70;;;;;;4987395;28;20554;-70
2023/09/18 12:14:32;;;;;;;6.22;1.13;;;25.00;73.30;;;;;;4989656;28;20102;-69
2023/09/18 12:17:02;;;;;;;3.03;1.23;;;25.40;72.90;;;;;;4994197;28;20048;-69
2023/09/18 12:19:28;;;;;;;;;;;24.80;73.70;;;;;;4989522;28;20027;-69
2023/09/18 12:21:54;;;;;;;3.65;1.08;;;24.60;73.90;;;;;;4992277;28;19940;-68
2023/09/18 12:24:25;;;;;;;3.85;1.25;;;24.60;73.80;;;;;;4983515;28;20133;-68
2023/09/18 12:26:52;;;;;;;2.65;1.20;;;24.70;72.60;;;;;;4984175;28;20557;-67
2023/09/18 12:29:18;;;;;;;2.55;1.35;;;24.40;73.20;;;;;;4972804;28;20467;-69
2023/09/18 12:31:45;;;;;;;6.07;1.50;;;24.50;73.80;;;;;;4989635;28;20022;-67
2023/09/18 12:34:18;;;;;;;6.78;1.35;;;24.40;73.80;;;;;;4999575;28;20387;-67
2023/09/18 12:36:47;;;;;;;4.53;1.33;;;24.20;73.90;;;;;;4991610;28;20038;-67
2023/09/18 12:39:16;;;;;;;2.83;1.00;;;24.30;73.20;;;;;;4996560;28;20114;-67
2023/09/18 12:41:42;;;;;;;6.63;1.10;;;24.50;73.70;;;;;;4992611;28;20136;-69
2023/09/18 12:44:08;;;;;;;3.13;1.40;;;25.20;71.90;;;;;;4995673;28;20042;-67
2023/09/18 12:46:34;;;;;;;2.40;1.23;;;25.40;70.60;;;;;;4993427;28;20458;-68
2023/09/18 12:49:21;;;;;;;4.38;1.67;;;25.20;71.10;;;;;;5001220;28;20041;-67